Dubre, KY (42731)

6:41 AM CST on March 06, 2015 (GMT -0600)
Grider | Change Station
CLOSE
Current Station
Personal Weather Station
Location: Burkesville, KY
Elevation: 705 ft
Nearby Weather Stations

Elev 705 ft 36.86 °N, 85.42 °W | Updated 2 minutes ago

Partly Cloudy
Partly Cloudy
1.9 °F
Feels Like 2 °F
N
0.0
Wind Variable Wind from West

Today
High -- | Low -- °F
--% Chance of Precip.
Yesterday
High -- | Low -- °F
Precip. -- in
6:06 AM 5:41 PM
Waxing Gibbous, 99% visible
Pressure 30.54 in
Visibility 3.0 miles
Clouds Clear
Windchill 2 °F
Dew Point -1 °F
Humidity 87%
Rainfall in
Snow Depth Not available.
UV 0 out of 12
Pollen .60 out of 12
Air Quality Not available.
Flu Activity Not available.
METAR KGLW 061210Z AUTO 00000KT 3SM BR CLR M18/M20 A3054 RMK AO2 T11851204

More Conditions Fewer Conditions

Pressure 30.54 in
Visibility 3.0 miles
Clouds Clear
Windchill 2 °F
Dew Point -1 °F
Humidity 87%
Rainfall in
Snow Depth Not available.
UV 0 out of 12
Pollen .60 out of 12
Air Quality Not available.
Flu Activity Not available.
METAR KGLW 061210Z AUTO 00000KT 3SM BR CLR M18/M20 A3054 RMK AO2 T11851204

More Conditions Fewer Conditions

10-Day Weather Forecast

Almanac

Astronomy

Mar. 06, 2015 Rise Set
Actual Time
Civil Twilight
Nautical Twilight
Astronomical Twilight
Moon
Length of Visible Light
Length of Day
Tomorrow will be .
, % of the Moon is Illuminated

Today's Extremes

State Highs State Lows

Community

WunderPhotos

Upload Photos

1,803,246 photos uploaded!

WunderBlogs® & News

Nearby

Air Quality

  Air Quality AQ Index Pollutant
Not available.

Snow Depth

Station Depth Elevation

Earthquake Activity

City Distance Mag. Time & Date
Minimum magnitude displayed is 2.5.

Coastal Water Temperatures

Place Temperature

Nearby Weather Stations

Special Statement
Statement as of 3:51 AM CST on March 06, 2015

... Patchy dense fog and slick Road conditions this morning...

Patchy ground fog is occurring over portions of central Kentucky
and southern Indiana. Where the fog is most dense visibilities are
under a quarter of a mile. Fog this dense can cause slick spots on
area roads... even on roads that have been cleared from the snow
yesterday. If you are on the roads and encounter this fog... slow
down and use your low-beam headlights until you get clear of it.
Conditions should improve by mid morning.